Home > Products > Valid Products > MTR

000
SAUS43 KDTX 242354
MTRP58
METAR KP58 242351Z AUTO 10008KT 04/M02 A3001 RMK AO2 SLP171
T00441017 10056 20044 58022 PWINO TSNO





000
SAUS43 KDTX 242253
MTRP58
METAR KP58 242251Z AUTO 10007KT 04/00 A3004 RMK AO2 SLP180 T00440000
PWINO TSNO





000
SAUS43 KDTX 242153
MTRP58
METAR KP58 242151Z AUTO 10008KT 04/01 A3006 RMK AO2 SLP186 T00440006
PWINO TSNO





000
SAUS43 KDTX 242054
MTRP58
METAR KP58 242051Z AUTO 10007KT 06/00 A3008 RMK AO2 SLP193 T00560000
56021 PWINO TSNO





000
SAUS43 KDTX 241953
MTRP58
METAR KP58 241951Z AUTO 11009KT 05/01 A3009 RMK AO2 SLP200 T00500006
PWINO TSNO





000
SAUS43 KDTX 241853
MTRP58
METAR KP58 241851Z AUTO 10009KT 05/01 A3012 RMK AO2 SLP207 T00500006
PWINO TSNO





000
SAUS43 KDTX 241752
MTRP58
METAR KP58 241751Z AUTO 09008KT 04/00 A3014 RMK AO2 SLP216 T00440000
10056 20006 58010 PWINO TSNO





000
SAUS43 KDTX 241652
MTRP58
METAR KP58 241651Z AUTO 08006KT 05/M01 A3016 RMK AO2 SLP222
T00501006 PWINO TSNO





000
SAUS43 KDTX 241554
MTRP58
METAR KP58 241551Z AUTO 09004KT 05/M01 A3017 RMK AO2 SLP225
T00501011 PWINO TSNO





000
SAUS43 KDTX 241453
MTRP58
METAR KP58 241451Z AUTO 04003KT 05/M02 A3017 RMK AO2 SLP225
T00501022 57002 PWINO TSNO





000
SAUS43 KDTX 241352
MTRP58
METAR KP58 241351Z AUTO 02003KT 05/M02 A3017 RMK AO2 SLP225
T00501022 PWINO TSNO





000
SAUS43 KDTX 241253
MTRP58
METAR KP58 241251Z AUTO 00000KT 04/M03 A3017 RMK AO2 SLP225
T00441028 PWINO TSNO





000
SAUS43 KDTX 241154
MTRP58
METAR KP58 241151Z AUTO 00000KT 01/M04 A3017 RMK AO2 SLP227
T00061039 10011 21017 53010 PWINO FZRANO TSNO





000
SAUS43 KDTX 241052
MTRP58
METAR KP58 241051Z AUTO 23003KT M01/M03 A3016 RMK AO2 SLP222
T10061033 PWINO FZRANO TSNO





000
SAUS43 KDTX 240953
MTRP58
METAR KP58 240951Z AUTO 00000KT M01/M04 A3015 RMK AO2 SLP219
T10061044 PWINO FZRANO TSNO





000
SAUS43 KDTX 240852
MTRP58
METAR KP58 240851Z AUTO 00000KT M02/M04 A3015 RMK AO2 SLP218
T10171039 53010 PWINO FZRANO TSNO





000
SAUS43 KDTX 240752
MTRP58
METAR KP58 240751Z AUTO 00000KT M02/M05 A3012 RMK AO2 SLP210
T10171050 PWINO FZRANO TSNO





000
SAUS43 KDTX 240654
MTRP58
METAR KP58 240651Z AUTO 00000KT M01/M04 A3012 RMK AO2 SLP210
T10111044 PWINO FZRANO TSNO





000
SAUS43 KDTX 240552
MTRP58
METAR KP58 240551Z AUTO 00000KT M01/M06 A3011 RMK AO2 SLP206
T10111056 10044 21011 58002 PWINO FZRANO TSNO





000
SAUS43 KDTX 240453
MTRP58
METAR KP58 240451Z AUTO 00000KT M01/M04 A3012 RMK AO2 SLP211
T10111039 400561011 PWINO FZRANO TSNO





000
SAUS43 KDTX 240354
MTRP58
METAR KP58 240351Z AUTO 00000KT M01/M04 A3012 RMK AO2 SLP211
T10061044 PWINO FZRANO TSNO





000
SAUS43 KDTX 240253
MTRP58
METAR KP58 240251Z AUTO 23003KT 00/M05 A3012 RMK AO2 SLP208
T00001050 51007 PWINO FZRANO TSNO





000
SAUS43 KDTX 240154
MTRP58
METAR KP58 240151Z AUTO 00000KT 01/M05 A3011 RMK AO2 SLP206
T00111050 PWINO FZRANO TSNO





000
SAUS43 KDTX 240053
MTRP58
METAR KP58 240051Z AUTO 00000KT 02/M08 A3011 RMK AO2 SLP205
T00221083 PWINO FZRANO TSNO





000
SAUS43 KDTX 232352
MTRP58
METAR KP58 232351Z AUTO 00000KT 04/M11 A3010 RMK AO2 SLP200
T00441106 10056 20033 58003 PWINO TSNO





000
SAUS43 KDTX 232252
MTRP58
METAR KP58 232251Z AUTO 00000KT 04/M08 A3010 RMK AO2 SLP200
T00391083 PWINO TSNO





000
SAUS43 KDTX 232152
MTRP58
METAR KP58 232151Z AUTO 00000KT 04/M07 A3011 RMK AO2 SLP203
T00391072 PWINO TSNO





000
SAUS43 KDTX 232054
MTRP58
METAR KP58 232051Z AUTO 04006KT 03/M04 A3011 RMK AO2 SLP203
T00331044 58001 PWINO TSNO





000
SAUS43 KDTX 231952
MTRP58
METAR KP58 231951Z AUTO 02007KT 04/M06 A3011 RMK AO2 SLP204
T00441056 PWINO TSNO





000
SAUS43 KDTX 231852
MTRP58
METAR KP58 231851Z AUTO 36006KT 04/M04 A3011 RMK AO2 SLP204
T00441044 PWINO TSNO





000
SAUS43 KDTX 231753
MTRP58
METAR KP58 231751Z AUTO 36007KT 05/M03 A3011 RMK AO2 SLP204
T00501033 10050 20028 50007 PWINO TSNO





000
SAUS43 KDTX 231653
MTRP58
METAR KP58 231651Z AUTO 33005KT 04/M04 A3012 RMK AO2 SLP206
T00391039 PWINO TSNO





000
SAUS43 KDTX 231554
MTRP58
METAR KP58 231551Z AUTO 35005KT 04/M03 A3010 RMK AO2 SLP199
T00391028 PWINO TSNO





000
SAUS43 KDTX 231454
MTRP58
METAR KP58 231451Z AUTO 35006KT 04/M02 A3009 RMK AO2 SLP196
T00391022 51022 PWINO TSNO





000
SAUS43 KDTX 231352
MTRP58
METAR KP58 231351Z AUTO 35005KT 03/M02 A3007 RMK AO2 SLP190
T00331017 PWINO TSNO





000
SAUS43 KDTX 231253
MTRP58
METAR KP58 231251Z AUTO 34008KT 03/M01 A3005 RMK AO2 SLP185
T00331011 PWINO TSNO





000
SAUS43 KDTX 231153
MTRP58
METAR KP58 231151Z AUTO 35006KT 03/M01 A3002 RMK AO2 SLP173 70001
T00281011 10033 20022 53020 PWINO TSNO





000
SAUS43 KDTX 230953
MTRP58
METAR KP58 230951Z AUTO 34008KT 03/M01 A2998 RMK AO2 SLP160
T00281006 PWINO TSNO





000
SAUS43 KDTX 230853
MTRP58
METAR KP58 230851Z AUTO 34007KT 03/M01 A2996 RMK AO2 SLP152
T00281006 53012 PWINO TSNO





000
SAUS43 KDTX 230753
MTRP58
METAR KP58 230751Z AUTO 33007KT 03/00 A2994 RMK AO2 SLP145 T00330000
PWINO TSNO





000
SAUS43 KDTX 230653
MTRP58
METAR KP58 230651Z AUTO 32008G17KT 03/01 A2993 RMK AO2 SLP143
T00280006 PWINO TSNO





000
SAUS43 KDTX 230553
MTRP58
METAR KP58 230551Z AUTO 33007KT 03/01 A2993 RMK AO2 SLP140 T00280006
10056 20028 51012 PWINO TSNO





000
SAUS43 KDTX 230452
MTRP58
METAR KP58 230451Z AUTO 32007KT 03/01 A2992 RMK AO2 SLP137 T00330006
401390033 PWINO TSNO





000
SAUS43 KDTX 230354
MTRP58
METAR KP58 230351Z AUTO 32008G15KT 03/01 A2990 RMK AO2 SLP131
T00330006 PWINO TSNO





000
SAUS43 KDTX 230252
MTRP58
METAR KP58 230251Z AUTO 32012G21KT 04/01 A2989 RMK AO2 SLP127
T00390011 52024 PWINO TSNO





000
SAUS43 KDTX 230152
MTRP58
METAR KP58 230151Z AUTO 31011G21KT 04/01 A2987 RMK AO2 SLP120
T00440011 PWINO TSNO





000
SAUS43 KDTX 230054
MTRP58
METAR KP58 230051Z AUTO 30012G19KT 04/01 A2984 RMK AO2 SLP110
T00440006 PWINO TSNO





000
SAUS43 KDTX 222352
MTRP58
METAR KP58 222351Z AUTO 30011G21KT 06/01 A2982 RMK AO2 SLP103
T00560011 10067 20050 51019 PWINO TSNO





000
SAUS43 KDTX 222252
MTRP58
METAR KP58 222251Z AUTO 30012G18KT 06/01 A2980 RMK AO2 SLP096
T00560006 PWINO TSNO





000
SAUS43 KDTX 222153
MTRP58
METAR KP58 222151Z AUTO 30009G17KT 270V330 06/01 A2978 RMK AO2
SLP091 T00560011 PWINO TSNO





000
SAUS43 KDTX 222054
MTRP58
METAR KP58 222051Z AUTO 31013G20KT 06/02 A2976 RMK AO2 SLP083
T00560022 53013 PWINO TSNO





000
SAUS43 KDTX 221953
MTRP58
METAR KP58 221951Z AUTO 29010G21KT 07/01 A2974 RMK AO2 SLP073
T00670011 PWINO TSNO





000
SAUS43 KDTX 221853
MTRP58
METAR KP58 221851Z AUTO 28011G22KT 06/02 A2973 RMK AO2 SLP069
T00610017 PWINO TSNO





000
SAUS43 KDTX 221753
MTRP58
METAR KP58 221751Z AUTO 30008G20KT 07/02 A2972 RMK AO2 SLP066 60001
T00670017 10072 20044 53001 PWINO TSNO





000
SAUS43 KDTX 221654
MTRP58
METAR KP58 221651Z AUTO 28011G16KT 07/01 A2972 RMK AO2 SLP067
T00670011 PWINO TSNO





000
SAUS43 KDTX 221554
MTRP58
METAR KP58 221551Z AUTO 27010G19KT 07/01 A2971 RMK AO2 SLP064
T00720011 PWINO TSNO





000
SAUS43 KDTX 221452
MTRP58
METAR KP58 221451Z AUTO 28012G22KT 06/01 A2972 RMK AO2 SLP066 60001
T00560006 50003 PWINO TSNO





000
SAUS43 KDTX 221354
MTRP58
METAR KP58 221351Z AUTO 30012G19KT 04/01 A2972 RMK AO2 SLP068
T00440006 PWINO TSNO





000
SAUS43 KDTX 221254
MTRP58
METAR KP58 221251Z AUTO 30009G19KT 06/02 A2971 RMK AO2 SLP065 P0001
T00560017 PWINO TSNO





000
SAUS43 KDTX 221154
MTRP58
METAR KP58 221151Z AUTO 30010G19KT 06/02 A2971 RMK AO2 SLP064 60002
70042 T00560022 10139 20050 53015 PWINO TSNO





000
SAUS43 KDTX 221052
MTRP58
METAR KP58 221051Z AUTO 32010KT 06/03 A2968 RMK AO2 SLP055 T00560033
PWINO TSNO





000
SAUS43 KDTX 220954
MTRP58
METAR KP58 220951Z AUTO 32007KT 06/04 A2967 RMK AO2 SLP051 P0001
T00560044 PWINO TSNO





000
SAUS43 KDTX 220854
MTRP58
METAR KP58 220851Z AUTO 32006KT 06/06 A2966 RMK AO2 SLP049 P0001
60001 T00610056 53004 PWINO TSNO





000
SAUS43 KDTX 220752
MTRP58
METAR KP58 220751Z AUTO 31008KT 09/08 A2965 RMK AO2 SLP043 T00890083
PWINO TSNO





000
SAUS43 KDTX 220554
MTRP58
METAR KP58 220551Z AUTO 24006KT 13/12 A2965 RMK AO2 SLP036 P0001
60038 T01330122 10133 20083 58020 PWINO TSNO





000
SAUS43 KDTX 220453
MTRP58
METAR KP58 220451Z AUTO 00000KT 11/09 A2967 RMK AO2 SLP044 P0021
T01060094 402170061 PWINO TSNO





000
SAUS43 KDTX 220352
MTRP58
METAR KP58 220351Z AUTO 22004KT 12/12 A2969 RMK AO2 SLP051 P0005
T01220117 PWINO TSNO





000
SAUS43 KDTX 220253
MTRP58
METAR KP58 220251Z AUTO 00000KT 12/11 A2971 RMK AO2 SLP058 P0006
60011 T01170111 58016 PWINO TSNO





000
SAUS43 KDTX 220152
MTRP58
METAR KP58 220151Z AUTO 00000KT 11/09 A2973 RMK AO2 SLP067 T01060094
PWINO TSNO





    US Dept of Commerce
    National Oceanic and Atmospheric Administration
    National Weather Service
    1325 East West Highway
    Silver Spring, MD 20910
    Page Author: NWS Internet Services Team
Disclaimer
Information Quality
Credits
Glossary
Privacy Policy
Freedom of Information Act (FOIA)
About Us
Career Opportunities